Time;durP1;ratioP1;P1;durP2;ratioP2;P2;SDS_P1;SDS_P2;PMS_P1;PMS_P2;Temp;Humidity;BMP_temperature;BMP_pressure;BME280_temperature;BME280_humidity;BME280_pressure;Samples;Min_cycle;Max_cycle;Signal;HPM_P1;HPM_P2
2023/02/25 00:01:39;;;;;;;73.37;7.50;;;5.00;99.90;;;;;;5031992;28;20204;-75
2023/02/25 00:04:05;;;;;;;74.10;7.77;;;5.00;99.90;;;;;;5032179;28;20775;-74
2023/02/25 00:06:30;;;;;;;79.77;8.17;;;5.00;99.90;;;;;;5031957;28;20204;-74
2023/02/25 00:08:56;;;;;;;77.20;7.87;;;5.00;99.90;;;;;;5031540;28;20263;-75
2023/02/25 00:11:24;;;;;;;75.30;7.40;;;5.00;99.90;;;;;;5034084;28;20291;-74
2023/02/25 00:13:49;;;;;;;78.37;8.43;;;5.00;99.90;;;;;;5036377;28;20189;-74
2023/02/25 00:16:16;;;;;;;76.87;8.67;;;5.00;99.90;;;;;;5031326;28;20790;-74
2023/02/25 00:18:45;;;;;;;75.80;8.10;;;5.00;99.90;;;;;;5031200;28;20210;-75
2023/02/25 00:21:16;;;;;;;75.77;7.80;;;5.00;99.90;;;;;;5031314;28;20461;-75
2023/02/25 00:23:48;;;;;;;81.87;9.17;;;5.00;99.90;;;;;;5031760;28;20440;-76
2023/02/25 00:26:15;;;;;;;79.80;8.57;;;5.00;99.90;;;;;;5031402;28;20423;-76
2023/02/25 00:28:41;;;;;;;78.63;8.20;;;4.90;99.90;;;;;;5031529;28;20420;-75
2023/02/25 00:31:14;;;;;;;77.80;7.60;;;4.90;99.90;;;;;;5029612;28;20874;-75
2023/02/25 00:33:40;;;;;;;78.57;7.90;;;4.90;99.90;;;;;;5036930;28;20423;-75
2023/02/25 00:36:10;;;;;;;78.03;8.27;;;4.90;99.90;;;;;;5050531;28;20506;-75
2023/02/25 00:38:37;;;;;;;79.07;8.90;;;4.90;99.90;;;;;;5049600;28;20487;-76
2023/02/25 00:41:12;;;;;;;79.10;9.30;;;4.90;99.90;;;;;;5050541;28;20428;-75
2023/02/25 00:43:41;;;;;;;79.73;8.80;;;4.90;99.90;;;;;;5051076;28;20416;-75
2023/02/25 00:46:06;;;;;;;75.10;8.33;;;4.90;99.90;;;;;;5050376;28;20519;-77
2023/02/25 00:48:32;;;;;;;77.10;8.23;;;4.90;99.90;;;;;;5049606;28;20509;-74
2023/02/25 00:51:07;;;;;;;77.57;8.67;;;4.90;99.90;;;;;;5050848;28;20207;-75
2023/02/25 00:53:33;;;;;;;78.10;8.50;;;4.90;99.90;;;;;;5024340;28;20920;-75
2023/02/25 00:56:00;;;;;;;131.13;92.87;;;4.90;99.90;;;;;;5031088;28;20432;-74
2023/02/25 00:58:26;;;;;;;89.97;9.53;;;4.90;99.90;;;;;;5022893;28;20260;-74
2023/02/25 01:00:52;;;;;;;90.07;9.53;;;4.90;99.90;;;;;;5031102;28;20448;-75
2023/02/25 01:03:18;;;;;;;83.90;8.47;;;4.90;99.90;;;;;;5030792;28;20182;-74
2023/02/25 01:05:48;;;;;;;82.00;8.20;;;4.90;99.90;;;;;;5044992;28;20176;-75
2023/02/25 01:08:17;;;;;;;175.33;125.17;;;4.90;99.90;;;;;;5050212;28;20189;-73
2023/02/25 01:10:43;;;;;;;81.20;7.97;;;4.90;99.90;;;;;;5050493;28;20452;-74
2023/02/25 01:13:09;;;;;;;79.50;8.30;;;4.90;99.90;;;;;;5050132;28;20423;-74
2023/02/25 01:15:34;;;;;;;80.37;8.23;;;4.90;99.90;;;;;;5050519;28;20421;-75
2023/02/25 01:18:00;;;;;;;178.53;94.30;;;4.90;99.90;;;;;;5050550;28;20271;-77
2023/02/25 01:20:28;;;;;;;87.60;8.10;;;4.90;99.90;;;;;;5050029;28;20184;-75
2023/02/25 01:22:54;;;;;;;82.50;9.03;;;4.90;99.90;;;;;;5049299;28;20526;-75
2023/02/25 01:25:20;;;;;;;78.57;8.03;;;4.80;99.90;;;;;;5049953;28;20416;-75
2023/02/25 01:27:45;;;;;;;79.10;8.27;;;4.80;99.90;;;;;;5049084;28;20857;-75
2023/02/25 01:30:11;;;;;;;78.00;7.57;;;4.80;99.90;;;;;;5050538;28;20560;-75
2023/02/25 01:32:37;;;;;;;76.97;6.57;;;4.80;99.90;;;;;;5053049;28;20319;-73
2023/02/25 01:35:03;;;;;;;79.53;7.07;;;4.80;99.90;;;;;;5038008;28;20280;-75
2023/02/25 01:37:29;;;;;;;78.57;7.73;;;4.80;99.90;;;;;;5026628;28;20188;-75
2023/02/25 01:39:54;;;;;;;78.27;6.93;;;4.90;99.90;;;;;;5034550;28;20534;-73
2023/02/25 01:42:20;;;;;;;79.97;7.63;;;4.80;99.90;;;;;;5032988;28;20345;-75
2023/02/25 01:45:10;;;;;;;77.87;7.03;;;4.80;99.90;;;;;;5034775;28;20653;-74
2023/02/25 01:47:38;;;;;;;78.87;6.83;;;4.80;99.90;;;;;;5027606;28;20269;-74
2023/02/25 01:50:05;;;;;;;81.10;6.27;;;4.70;99.90;;;;;;5034117;28;20442;-76
2023/02/25 01:52:31;;;;;;;75.83;6.30;;;4.70;99.90;;;;;;5034322;28;20449;-74
2023/02/25 01:54:57;;;;;;;77.07;6.23;;;4.70;99.90;;;;;;5034600;28;20448;-74
2023/02/25 01:57:23;;;;;;;77.83;6.17;;;4.70;99.90;;;;;;5033995;28;20222;-77
2023/02/25 01:59:50;;;;;;;75.00;5.77;;;4.70;99.90;;;;;;5034240;28;20478;-76
2023/02/25 03:32:54;;;;;;;74.47;5.43;;;4.50;99.90;;;;;;5008855;28;21328;-76
2023/02/25 03:35:22;;;;;;;76.30;5.70;;;4.50;99.90;;;;;;5021870;28;20825;-75
2023/02/25 03:37:50;;;;;;;75.30;5.00;;;4.50;99.90;;;;;;5020554;28;20431;-76
2023/02/25 03:40:18;;;;;;;76.67;5.13;;;4.50;99.90;;;;;;5027416;28;20504;-75
2023/02/25 03:42:55;;;;;;;72.47;4.70;;;4.40;99.90;;;;;;5004064;28;20425;-78
2023/02/25 03:45:23;;;;;;;72.90;4.40;;;4.40;99.90;;;;;;5010624;28;20939;-74
2023/02/25 03:47:49;;;;;;;76.30;4.60;;;4.30;99.90;;;;;;5000361;28;20431;-75
2023/02/25 03:50:29;;;;;;;77.77;4.47;;;4.30;99.90;;;;;;5000582;28;20436;-75
2023/02/25 03:52:54;;;;;;;77.67;4.67;;;4.20;99.90;;;;;;5002994;28;20436;-75
2023/02/25 03:55:20;;;;;;;76.13;4.50;;;4.10;99.90;;;;;;5002569;28;20483;-75
2023/02/25 03:57:49;;;;;;;79.20;4.90;;;4.10;99.90;;;;;;5000334;28;20556;-75
2023/02/25 04:00:27;;;;;;;76.70;4.80;;;4.10;99.90;;;;;;5000225;28;20562;-75
2023/02/25 04:02:53;;;;;;;75.97;3.90;;;4.10;99.90;;;;;;5001088;28;20467;-75
2023/02/25 04:05:20;;;;;;;81.03;4.70;;;4.10;99.90;;;;;;5002456;28;20932;-75
2023/02/25 04:07:47;;;;;;;77.60;4.20;;;4.10;99.90;;;;;;4996229;28;20193;-74
2023/02/25 04:10:14;;;;;;;74.90;4.03;;;4.10;99.90;;;;;;5003699;28;20455;-75
2023/02/25 04:12:40;;;;;;;73.40;4.10;;;4.10;99.90;;;;;;4991848;28;20498;-75
2023/02/25 04:15:06;;;;;;;74.00;4.17;;;4.10;99.90;;;;;;5000054;28;20950;-73
2023/02/25 04:17:33;;;;;;;76.10;4.13;;;4.10;99.90;;;;;;4992910;28;20257;-75
2023/02/25 04:19:58;;;;;;;83.73;4.63;;;4.10;99.90;;;;;;5003394;28;20559;-75
2023/02/25 04:22:24;;;;;;;81.13;5.20;;;4.10;99.90;;;;;;5016712;28;20517;-75
2023/02/25 04:24:50;;;;;;;80.10;4.40;;;4.10;99.90;;;;;;5004487;28;20186;-75
2023/02/25 04:27:15;;;;;;;76.27;4.10;;;4.10;99.90;;;;;;5001147;28;20731;-75
2023/02/25 04:29:42;;;;;;;73.00;4.00;;;4.10;99.90;;;;;;4994964;28;20197;-73
2023/02/25 04:32:08;;;;;;;73.93;3.70;;;4.00;99.90;;;;;;5002802;28;20213;-75
2023/02/25 04:34:33;;;;;;;73.83;3.87;;;4.10;99.90;;;;;;5000184;28;20443;-75
2023/02/25 04:37:01;;;;;;;77.37;4.00;;;4.10;99.90;;;;;;4997731;28;20194;-75
2023/02/25 04:39:27;;;;;;;81.27;4.40;;;4.10;99.90;;;;;;5002630;28;20209;-75
2023/02/25 04:41:53;;;;;;;98.10;30.77;;;4.10;99.90;;;;;;5003171;28;20456;-76
2023/02/25 04:44:19;;;;;;;79.40;5.33;;;4.10;99.90;;;;;;5002427;28;20492;-74
2023/02/25 04:46:44;;;;;;;73.93;3.73;;;4.10;99.90;;;;;;4999575;28;20432;-74
2023/02/25 04:49:10;;;;;;;76.00;3.83;;;4.10;99.90;;;;;;4999726;28;20198;-74
2023/02/25 04:51:38;;;;;;;80.77;3.90;;;4.10;99.90;;;;;;4999280;28;20772;-75
2023/02/25 04:54:03;;;;;;;74.90;4.13;;;4.10;99.90;;;;;;4999782;28;20399;-75
2023/02/25 04:56:29;;;;;;;75.13;3.87;;;4.00;99.90;;;;;;5000759;28;20810;-75
2023/02/25 04:58:57;;;;;;;73.77;4.20;;;4.00;99.90;;;;;;5002965;28;20227;-75
2023/02/25 05:01:22;;;;;;;73.20;3.83;;;4.00;99.90;;;;;;5001572;28;20209;-75
2023/02/25 05:03:48;;;;;;;73.50;3.53;;;4.00;99.90;;;;;;4999549;28;20850;-75
2023/02/25 05:06:14;;;;;;;74.73;3.90;;;4.00;99.90;;;;;;4999457;28;20202;-75
2023/02/25 05:08:39;;;;;;;70.60;3.17;;;4.00;99.90;;;;;;5002166;28;20211;-74
2023/02/25 05:11:05;;;;;;;71.27;3.17;;;3.90;99.90;;;;;;5002871;28;20206;-75
2023/02/25 05:13:30;;;;;;;75.90;3.60;;;3.90;99.90;;;;;;4993141;28;20196;-75
2023/02/25 05:16:10;;;;;;;77.33;3.47;;;3.90;99.90;;;;;;5005639;28;20666;-74
2023/02/25 05:18:41;;;;;;;71.20;3.40;;;4.00;99.90;;;;;;4999978;28;20303;-74
2023/02/25 05:21:12;;;;;;;124.43;42.80;;;4.00;99.90;;;;;;4998193;28;20462;-73
2023/02/25 05:23:41;;;;;;;71.00;3.40;;;4.00;99.90;;;;;;4999681;28;20467;-75
2023/02/25 05:26:07;;;;;;;74.07;3.30;;;4.00;99.90;;;;;;4999344;28;20973;-76
2023/02/25 05:28:33;;;;;;;77.00;3.43;;;4.00;99.90;;;;;;5000967;28;20416;-75
2023/02/25 05:31:02;;;;;;;72.87;3.17;;;4.00;99.90;;;;;;5002473;28;20217;-75
2023/02/25 05:33:28;;;;;;;71.10;3.00;;;4.00;99.90;;;;;;5000932;28;20412;-76
2023/02/25 05:35:54;;;;;;;71.23;3.00;;;4.00;99.90;;;;;;4999059;28;20771;-75
2023/02/25 05:38:19;;;;;;;71.20;3.10;;;4.00;99.90;;;;;;4998813;28;20409;-75
2023/02/25 05:40:45;;;;;;;72.80;3.30;;;4.00;99.90;;;;;;5002403;28;20220;-75
2023/02/25 05:43:10;;;;;;;71.40;2.93;;;4.00;99.90;;;;;;4994361;28;20193;-75
2023/02/25 05:45:36;;;;;;;71.20;2.90;;;4.00;99.90;;;;;;5006721;28;20249;-75
2023/02/25 05:48:01;;;;;;;73.33;2.70;;;4.00;99.90;;;;;;4999155;28;20553;-75
2023/02/25 05:50:27;;;;;;;78.40;3.20;;;4.00;99.90;;;;;;4999808;28;20203;-75
2023/02/25 05:52:53;;;;;;;72.97;2.90;;;4.00;99.90;;;;;;5006030;28;20214;-75
2023/02/25 05:55:19;;;;;;;78.70;3.90;;;4.00;99.90;;;;;;5007115;28;21022;-74
2023/02/25 05:57:44;;;;;;;72.53;2.90;;;4.10;99.90;;;;;;4998898;28;20224;-72
2023/02/25 06:00:13;;;;;;;73.17;2.67;;;4.10;99.90;;;;;;4999093;28;20225;-73
2023/02/25 06:02:39;;;;;;;108.43;28.30;;;4.00;99.90;;;;;;5001137;28;20297;-73
2023/02/25 06:05:06;;;;;;;147.40;69.97;;;4.10;99.90;;;;;;5002614;28;20456;-73
2023/02/25 06:07:32;;;;;;;99.07;13.60;;;4.00;99.90;;;;;;5000372;28;20449;-73
2023/02/25 06:09:59;;;;;;;92.50;7.87;;;4.10;99.90;;;;;;4999070;28;20450;-73
2023/02/25 06:12:27;;;;;;;84.77;4.90;;;4.10;99.90;;;;;;4998664;28;20958;-73
2023/02/25 06:14:53;;;;;;;81.07;5.10;;;4.10;99.90;;;;;;4999477;28;20432;-74
2023/02/25 06:17:18;;;;;;;81.90;4.57;;;4.10;99.90;;;;;;5004607;28;20467;-73
2023/02/25 06:19:44;;;;;;;76.97;3.90;;;4.20;99.90;;;;;;5001028;28;20594;-73
2023/02/25 06:22:10;;;;;;;85.50;4.07;;;4.10;99.90;;;;;;5001601;28;20209;-73
2023/02/25 06:24:35;;;;;;;79.50;4.00;;;4.10;99.90;;;;;;5003741;28;20663;-73
2023/02/25 06:27:01;;;;;;;81.73;4.27;;;4.10;99.90;;;;;;5005537;28;20636;-74
2023/02/25 06:29:27;;;;;;;81.50;4.00;;;4.10;99.90;;;;;;5004141;28;20194;-73
2023/02/25 06:31:53;;;;;;;82.20;4.23;;;4.10;99.90;;;;;;5002001;28;20224;-72
2023/02/25 06:34:19;;;;;;;80.73;4.40;;;4.20;99.90;;;;;;5001973;28;20187;-73
2023/02/25 06:36:45;;;;;;;78.43;4.20;;;4.20;99.90;;;;;;5002801;28;20436;-73
2023/02/25 06:39:11;;;;;;;79.73;4.30;;;4.20;99.90;;;;;;5003343;28;20723;-73
2023/02/25 06:41:36;;;;;;;77.27;3.97;;;4.30;99.90;;;;;;5003950;28;20610;-73
2023/02/25 06:44:03;;;;;;;77.40;4.33;;;4.20;99.90;;;;;;5006045;28;20187;-73
2023/02/25 06:46:29;;;;;;;77.17;4.17;;;4.20;99.90;;;;;;4996392;28;20244;-73
2023/02/25 06:48:54;;;;;;;76.67;4.43;;;4.20;99.90;;;;;;5006290;28;20515;-73
2023/02/25 06:51:20;;;;;;;80.40;4.70;;;4.20;99.90;;;;;;5005382;28;20501;-73
2023/02/25 06:53:46;;;;;;;77.03;4.20;;;4.20;99.90;;;;;;5001564;28;20202;-73
2023/02/25 06:56:13;;;;;;;78.53;3.63;;;4.20;99.90;;;;;;5001806;28;20437;-73
2023/02/25 06:58:40;;;;;;;80.17;3.90;;;4.30;99.90;;;;;;5003355;28;20216;-73
2023/02/25 07:01:07;;;;;;;81.90;4.17;;;4.30;99.90;;;;;;5005097;28;20807;-73
2023/02/25 07:03:33;;;;;;;79.50;4.13;;;4.30;99.90;;;;;;5003251;28;20449;-74
2023/02/25 07:05:58;;;;;;;78.03;4.30;;;4.30;99.90;;;;;;5001461;28;20435;-73
2023/02/25 07:08:24;;;;;;;80.00;4.27;;;4.30;99.90;;;;;;5001363;28;20595;-71
2023/02/25 07:10:49;;;;;;;78.17;4.40;;;4.30;99.90;;;;;;5002607;28;20206;-72
2023/02/25 07:13:15;;;;;;;78.70;3.60;;;4.30;99.90;;;;;;5000316;28;20277;-74
2023/02/25 07:15:41;;;;;;;78.97;4.13;;;4.40;99.90;;;;;;5002322;28;20577;-73
2023/02/25 07:18:06;;;;;;;77.97;4.37;;;4.40;99.90;;;;;;5003673;28;20253;-73
2023/02/25 07:20:32;;;;;;;76.00;4.13;;;4.40;99.90;;;;;;5002105;28;20766;-73
2023/02/25 07:22:57;;;;;;;79.60;4.57;;;4.50;99.90;;;;;;5000493;28;20226;-72
2023/02/25 07:25:23;;;;;;;78.93;4.23;;;4.60;99.90;;;;;;5000292;28;20682;-74
2023/02/25 07:27:48;;;;;;;82.93;4.57;;;4.60;99.90;;;;;;5002091;28;20279;-73
2023/02/25 07:30:14;;;;;;;80.57;4.10;;;4.70;99.90;;;;;;4996674;28;20658;-73
2023/02/25 07:32:41;;;;;;;84.00;4.50;;;4.70;99.90;;;;;;5001695;28;20252;-73
2023/02/25 07:35:07;;;;;;;78.60;4.50;;;4.80;99.90;;;;;;5003401;28;20233;-73
2023/02/25 07:37:33;;;;;;;86.80;4.80;;;4.90;99.90;;;;;;5002091;28;20940;-73
2023/02/25 07:39:58;;;;;;;82.23;4.30;;;5.00;99.90;;;;;;4999909;28;20547;-72
2023/02/25 07:42:27;;;;;;;78.47;4.10;;;5.00;99.90;;;;;;4999977;28;20213;-73
2023/02/25 07:44:52;;;;;;;77.30;4.20;;;5.00;99.90;;;;;;5000193;28;20238;-73
2023/02/25 07:47:18;;;;;;;83.60;3.97;;;4.90;99.90;;;;;;5000766;28;20449;-73
2023/02/25 07:49:44;;;;;;;78.10;4.23;;;4.80;99.90;;;;;;5002955;28;20952;-73
2023/02/25 07:52:10;;;;;;;75.13;4.17;;;4.80;99.90;;;;;;5007956;28;20460;-73
2023/02/25 07:54:35;;;;;;;76.70;3.93;;;4.80;99.90;;;;;;5001423;28;20264;-72
2023/02/25 07:57:01;;;;;;;78.93;4.10;;;4.80;99.90;;;;;;5002657;28;20675;-72
2023/02/25 07:59:27;;;;;;;77.47;3.93;;;4.90;99.90;;;;;;5003398;28;20212;-71
2023/02/25 08:01:53;;;;;;;77.07;4.00;;;5.00;99.90;;;;;;4992361;28;20208;-72
2023/02/25 08:04:19;;;;;;;76.30;4.00;;;5.10;99.90;;;;;;5000333;28;20427;-71
2023/02/25 08:06:46;;;;;;;77.00;4.17;;;5.20;99.90;;;;;;5001966;28;20240;-73
2023/02/25 08:09:11;;;;;;;79.00;4.30;;;5.20;99.90;;;;;;5003731;28;20296;-72
2023/02/25 08:11:38;;;;;;;82.07;4.70;;;5.10;99.90;;;;;;5001686;28;20922;-73
2023/02/25 08:14:04;;;;;;;80.27;4.37;;;5.10;99.90;;;;;;5000460;28;20437;-72
2023/02/25 08:16:31;;;;;;;80.63;4.20;;;5.20;99.90;;;;;;5000050;28;20438;-73
2023/02/25 08:18:57;;;;;;;78.97;7.00;;;5.20;99.90;;;;;;5003385;28;20843;-72
2023/02/25 08:21:23;;;;;;;80.47;4.50;;;5.30;99.90;;;;;;5003424;28;20454;-73
2023/02/25 08:23:53;;;;;;;77.97;4.40;;;5.40;99.90;;;;;;5000006;28;20451;-74
2023/02/25 08:26:21;;;;;;;81.27;4.60;;;5.90;99.90;;;;;;4999833;28;20427;-73
2023/02/25 08:28:47;;;;;;;75.50;3.70;;;6.50;99.90;;;;;;5002175;28;20575;-72
2023/02/25 08:31:13;;;;;;;79.57;4.37;;;6.80;99.90;;;;;;5003297;28;20458;-73
2023/02/25 08:33:42;;;;;;;80.70;4.47;;;7.20;99.90;;;;;;5001615;28;20786;-73
2023/02/25 08:36:14;;;;;;;80.73;3.90;;;7.20;99.90;;;;;;4991947;28;20194;-73
2023/02/25 08:38:40;;;;;;;77.00;4.17;;;7.50;99.90;;;;;;4986025;28;20484;-72
2023/02/25 08:41:07;;;;;;;78.10;4.30;;;7.70;99.90;;;;;;5006300;28;20599;-72
2023/02/25 08:43:33;;;;;;;82.13;4.20;;;7.90;99.90;;;;;;5004460;28;20189;-72
2023/02/25 08:45:59;;;;;;;79.50;4.10;;;8.00;99.90;;;;;;4994213;28;20453;-73
2023/02/25 08:48:24;;;;;;;79.30;4.13;;;8.20;99.90;;;;;;4991588;28;20410;-73
2023/02/25 08:50:50;;;;;;;80.50;4.50;;;8.60;99.90;;;;;;4993276;28;20232;-74
2023/02/25 08:53:15;;;;;;;80.03;3.97;;;9.20;99.90;;;;;;5010873;28;20726;-74
2023/02/25 08:55:41;;;;;;;80.53;4.53;;;9.80;99.90;;;;;;5002247;28;20213;-72
2023/02/25 08:58:07;;;;;;;262.07;111.97;;;10.00;99.90;;;;;;5002812;28;20196;-73
2023/02/25 09:00:33;;;;;;;81.97;4.30;;;10.60;99.90;;;;;;5002416;28;20213;-73
2023/02/25 09:02:59;;;;;;;79.47;4.27;;;10.70;99.90;;;;;;5002767;28;20447;-73
2023/02/25 09:05:25;;;;;;;78.87;3.97;;;11.20;99.90;;;;;;5002867;28;20198;-73
2023/02/25 09:07:51;;;;;;;80.30;3.77;;;11.40;99.90;;;;;;4999574;28;21060;-73
2023/02/25 09:10:17;;;;;;;257.97;148.20;;;11.10;99.90;;;;;;4991148;28;20440;-72
2023/02/25 09:12:43;;;;;;;80.10;4.03;;;11.50;99.90;;;;;;5000264;28;20544;-73
2023/02/25 09:15:10;;;;;;;82.43;5.63;;;11.70;99.90;;;;;;5002812;28;20237;-73
2023/02/25 09:17:37;;;;;;;81.33;4.63;;;11.90;99.90;;;;;;5002301;28;20441;-73
2023/02/25 09:20:07;;;;;;;79.00;4.20;;;12.10;99.90;;;;;;5010808;28;20519;-73
2023/02/25 09:22:33;;;;;;;79.73;3.70;;;12.50;99.90;;;;;;5002371;28;20483;-72
2023/02/25 09:25:00;;;;;;;78.47;3.30;;;12.50;99.90;;;;;;4999639;28;20458;-73
2023/02/25 09:27:26;;;;;;;330.23;165.27;;;12.50;99.90;;;;;;4998126;28;20517;-74
2023/02/25 09:29:51;;;;;;;79.53;3.10;;;13.00;99.90;;;;;;5001627;28;20507;-74
2023/02/25 09:32:20;;;;;;;76.07;2.80;;;13.00;99.90;;;;;;5002770;28;21092;-78
2023/02/25 09:34:48;;;;;;;76.80;3.10;;;12.70;99.90;;;;;;4991089;28;20187;-73
2023/02/25 09:37:14;;;;;;;77.17;2.97;;;13.10;99.90;;;;;;4990324;28;20443;-73
2023/02/25 09:39:41;;;;;;;284.97;118.57;;;13.60;99.90;;;;;;4990843;28;20527;-74
2023/02/25 09:42:12;;;;;;;76.20;3.00;;;13.30;99.90;;;;;;4991180;28;20454;-74
2023/02/25 09:44:59;;;;;;;76.23;2.80;;;12.40;99.90;;;;;;4991105;28;20418;-74
2023/02/25 09:47:40;;;;;;;76.83;2.70;;;12.00;99.90;;;;;;4999001;28;20829;-73
2023/02/25 09:50:20;;;;;;;76.47;3.03;;;11.30;99.90;;;;;;4992199;28;20460;-73
2023/02/25 09:53:08;;;;;;;75.97;2.77;;;10.60;99.90;;;;;;4987935;28;20445;-73
2023/02/25 09:55:38;;;;;;;75.60;3.00;;;10.10;99.90;;;;;;5002235;28;20492;-72
2023/02/25 09:58:10;;;;;;;74.57;3.00;;;9.80;99.90;;;;;;4993026;28;20418;-73
2023/02/25 10:00:43;;;;;;;76.60;3.13;;;9.60;99.90;;;;;;4993077;28;20892;-73
2023/02/25 10:03:24;;;;;;;75.30;2.77;;;9.10;99.90;;;;;;4994622;28;20453;-73
2023/02/25 10:06:01;;;;;;;75.33;3.20;;;8.80;99.90;;;;;;5003201;28;20435;-73
2023/02/25 10:08:43;;;;;;;78.70;3.10;;;8.60;99.90;;;;;;5005112;28;20527;-73
2023/02/25 10:11:45;;;;;;;74.40;3.00;;;8.40;99.90;;;;;;4994126;28;20528;-72
2023/02/25 10:14:16;;;;;;;133.53;92.87;;;8.40;99.90;;;;;;4984966;28;20455;-73
2023/02/25 10:16:52;;;;;;;78.13;3.20;;;8.40;99.90;;;;;;5002937;28;20501;-72
2023/02/25 10:19:27;;;;;;;77.97;3.40;;;8.20;99.90;;;;;;5013648;28;20980;-72
2023/02/25 10:22:24;;;;;;;80.60;3.43;;;8.20;99.90;;;;;;5000028;28;20450;-73
2023/02/25 10:25:00;;;;;;;77.63;3.40;;;8.30;99.90;;;;;;5003201;28;20424;-73
2023/02/25 10:27:31;;;;;;;83.20;3.10;;;8.20;99.90;;;;;;5002158;28;20462;-73
2023/02/25 10:30:26;;;;;;;80.57;3.60;;;8.00;99.90;;;;;;5004448;28;20510;-73
2023/02/25 10:32:53;;;;;;;77.20;3.30;;;7.80;99.90;;;;;;5001679;28;20439;-73
2023/02/25 10:35:24;;;;;;;78.00;3.67;;;7.70;99.90;;;;;;5006934;28;20460;-73
2023/02/25 10:37:49;;;;;;;80.13;3.70;;;7.50;99.90;;;;;;4998740;28;20511;-72
2023/02/25 10:40:19;;;;;;;213.50;117.23;;;7.40;99.90;;;;;;4992564;28;20889;-72
2023/02/25 10:42:47;;;;;;;83.87;3.73;;;7.40;99.90;;;;;;4993027;28;20750;-71
2023/02/25 10:45:22;;;;;;;80.43;4.20;;;7.40;99.90;;;;;;4988012;28;20447;-72
2023/02/25 10:48:00;;;;;;;78.17;3.60;;;7.20;99.90;;;;;;4987376;28;20984;-72
2023/02/25 10:50:27;;;;;;;83.10;3.58;;;7.30;99.90;;;;;;4988830;28;20440;-72
2023/02/25 10:52:59;;;;;;;77.10;3.77;;;7.30;99.90;;;;;;4994726;28;20192;-73
2023/02/25 10:55:50;;;;;;;78.60;3.77;;;7.10;99.90;;;;;;4995239;28;20428;-72
2023/02/25 10:58:43;;;;;;;77.90;3.43;;;7.10;99.90;;;;;;4989097;28;20452;-72
2023/02/25 11:01:08;;;;;;;77.03;3.47;;;7.30;99.90;;;;;;4970679;28;20459;-72
2023/02/25 11:03:46;;;;;;;82.50;3.67;;;7.30;99.90;;;;;;4994925;28;20412;-72
2023/02/25 11:06:24;;;;;;;81.00;3.50;;;7.30;99.90;;;;;;4994665;28;20267;-71
2023/02/25 11:08:51;;;;;;;75.73;2.87;;;7.30;99.90;;;;;;5002385;28;20422;-72
2023/02/25 11:11:21;;;;;;;77.50;3.87;;;7.50;99.90;;;;;;5004429;28;20452;-73
2023/02/25 11:14:14;;;;;;;77.47;3.70;;;7.90;99.90;;;;;;5003064;28;20512;-73
2023/02/25 11:16:42;;;;;;;76.70;3.97;;;8.30;99.90;;;;;;4999418;28;20468;-73
2023/02/25 11:19:21;;;;;;;76.03;3.27;;;8.60;99.90;;;;;;5005173;28;20840;-75
2023/02/25 11:21:47;;;;;;;79.57;3.73;;;8.70;99.90;;;;;;4996015;28;20459;-74
2023/02/25 11:24:21;;;;;;;79.63;3.70;;;8.80;99.90;;;;;;5004793;28;20489;-73
2023/02/25 11:26:49;;;;;;;78.80;3.17;;;8.70;99.90;;;;;;4995664;28;20704;-74
2023/02/25 11:29:29;;;;;;;79.20;3.30;;;8.60;99.90;;;;;;5006206;28;20427;-73
2023/02/25 11:31:59;;;;;;;75.63;4.03;;;8.60;99.90;;;;;;4994332;28;20467;-73
2023/02/25 11:34:29;;;;;;;79.07;4.47;;;8.00;99.90;;;;;;5001882;28;20948;-73
2023/02/25 11:36:56;;;;;;;78.00;3.80;;;7.70;99.90;;;;;;4996979;28;20426;-73
2023/02/25 11:39:25;;;;;;;74.27;3.70;;;7.70;99.90;;;;;;5012123;28;20504;-73
2023/02/25 11:42:01;;;;;;;74.00;3.20;;;7.70;99.90;;;;;;4995537;28;20464;-72
2023/02/25 11:44:29;;;;;;;76.27;3.17;;;7.50;99.90;;;;;;4998075;28;20932;-74
2023/02/25 11:47:20;;;;;;;76.40;3.60;;;7.70;99.90;;;;;;4996478;28;20429;-73
2023/02/25 11:50:03;;;;;;;76.10;3.20;;;7.60;99.90;;;;;;5008824;28;20427;-72
2023/02/25 11:52:40;;;;;;;73.80;3.60;;;7.60;99.90;;;;;;4994323;28;20503;-73
2023/02/25 11:55:35;;;;;;;76.07;3.30;;;7.70;99.90;;;;;;5007552;28;20438;-73
2023/02/25 11:58:22;;;;;;;72.83;3.60;;;7.80;99.90;;;;;;4992228;28;20450;-73
2023/02/25 12:01:21;;;;;;;73.73;3.70;;;7.80;99.90;;;;;;5001060;28;20535;-73
2023/02/25 12:04:16;;;;;;;78.90;3.07;;;7.90;99.90;;;;;;5001066;28;20441;-73
2023/02/25 12:07:27;;;;;;;74.10;3.23;;;7.90;99.90;;;;;;4993231;28;20495;-72
2023/02/25 12:10:26;;;;;;;75.03;3.43;;;7.90;99.90;;;;;;4983794;28;20852;-71
2023/02/25 12:13:28;;;;;;;72.47;3.20;;;7.90;99.90;;;;;;4993022;28;20440;-72
2023/02/25 12:16:15;;;;;;;76.30;3.70;;;7.80;99.90;;;;;;5000635;28;20438;-72
2023/02/25 12:19:14;;;;;;;80.37;3.77;;;7.60;99.90;;;;;;4992068;28;20473;-72
2023/02/25 12:22:16;;;;;;;77.77;4.43;;;7.50;99.90;;;;;;4996647;28;20440;-73
2023/02/25 12:24:57;;;;;;;76.97;3.90;;;7.40;99.90;;;;;;4998060;28;20993;-72
2023/02/25 12:27:47;;;;;;;73.03;3.40;;;7.30;99.90;;;;;;4999089;28;20515;-72
2023/02/25 12:30:19;;;;;;;78.37;3.70;;;7.00;99.90;;;;;;4998261;28;20468;-72
2023/02/25 12:33:19;;;;;;;77.43;3.30;;;6.90;99.90;;;;;;4993909;28;20467;-72
2023/02/25 12:36:22;;;;;;;77.83;4.73;;;6.70;99.90;;;;;;5000280;28;20460;-71
2023/02/25 12:39:29;;;;;;;218.10;197.30;;;6.70;99.90;;;;;;4995440;28;20480;-72
2023/02/25 12:42:12;;;;;;;85.07;6.33;;;6.70;99.90;;;;;;4985409;28;20808;-71
2023/02/25 12:45:02;;;;;;;85.37;9.13;;;6.50;99.90;;;;;;4996269;28;20448;-72
2023/02/25 12:47:45;;;;;;;80.77;5.40;;;6.40;99.90;;;;;;4990456;28;20569;-72
2023/02/25 12:50:35;;;;;;;79.17;6.03;;;6.20;99.90;;;;;;4991695;28;20868;-72
2023/02/25 12:53:42;;;;;;;88.47;5.40;;;6.00;99.90;;;;;;4998069;28;20826;-72
2023/02/25 12:56:26;;;;;;;86.75;5.20;;;5.90;99.90;;;;;;5001272;28;20454;-72
2023/02/25 12:59:09;;;;;;;87.47;4.77;;;5.80;99.90;;;;;;4991379;28;20251;-71
2023/02/25 13:01:55;;;;;;;78.77;5.20;;;5.70;99.90;;;;;;5001000;28;20459;-72
2023/02/25 13:04:49;;;;;;;79.87;4.73;;;5.70;99.90;;;;;;4997775;28;20412;-73
2023/02/25 13:07:47;;;;;;;81.23;5.33;;;5.70;99.90;;;;;;4982721;28;20436;-72
2023/02/25 13:10:45;;;;;;;83.75;4.75;;;5.70;99.90;;;;;;4989956;28;20420;-71
2023/02/25 13:13:24;;;;;;;80.07;5.20;;;5.70;99.90;;;;;;4993658;28;20260;-71
2023/02/25 13:16:14;;;;;;;95.13;4.23;;;5.80;99.90;;;;;;4999668;28;20847;-72
2023/02/25 13:19:05;;;;;;;82.20;5.40;;;6.00;99.90;;;;;;5000030;28;20480;-72
2023/02/25 13:21:49;;;;;;;77.97;4.20;;;6.10;99.90;;;;;;4993514;28;20805;-71
2023/02/25 13:25:12;;;;;;;77.90;4.17;;;6.10;99.90;;;;;;4991375;28;20430;-71
2023/02/25 13:27:59;;;;;;;82.77;4.00;;;6.20;99.90;;;;;;4959752;28;20435;-71
2023/02/25 13:30:36;;;;;;;78.20;4.70;;;6.30;99.90;;;;;;5009196;28;20460;-72
2023/02/25 13:33:40;;;;;;;88.50;4.60;;;6.20;99.90;;;;;;5003146;28;20416;-71
2023/02/25 13:36:28;;;;;;;83.13;4.40;;;6.30;99.90;;;;;;5005859;28;20306;-72
2023/02/25 13:38:53;;;;;;;76.67;4.40;;;6.40;99.90;;;;;;5003426;28;20470;-72
2023/02/25 13:41:40;;;;;;;77.00;3.90;;;6.50;99.90;;;;;;5002955;28;20467;-72
2023/02/25 13:44:14;;;;;;;77.70;4.17;;;6.70;99.90;;;;;;5004995;28;20182;-72
2023/02/25 13:46:51;;;;;;;76.10;4.37;;;7.00;99.90;;;;;;4999045;28;20436;-73
2023/02/25 13:49:39;;;;;;;77.93;4.00;;;7.20;99.90;;;;;;4991489;28;20420;-72
2023/02/25 13:52:13;;;;;;;77.57;4.40;;;7.20;99.90;;;;;;5002696;28;20818;-73
2023/02/25 13:54:59;;;;;;;76.87;3.70;;;7.30;99.90;;;;;;5001868;28;20424;-73
2023/02/25 13:58:12;;;;;;;77.67;4.10;;;7.40;99.90;;;;;;4996050;28;20440;-72
2023/02/25 14:01:13;;;;;;;76.53;3.43;;;7.30;99.90;;;;;;4996598;28;21320;-72
2023/02/25 14:04:07;;;;;;;74.40;3.33;;;7.30;99.90;;;;;;4997958;28;20488;-71
2023/02/25 14:06:58;;;;;;;78.00;3.63;;;7.20;99.90;;;;;;5003435;28;20425;-72
2023/02/25 14:09:46;;;;;;;85.90;3.70;;;7.30;99.90;;;;;;4998794;28;20486;-70
2023/02/25 14:12:49;;;;;;;78.20;4.00;;;7.30;99.90;;;;;;5007802;28;20453;-70
2023/02/25 14:15:27;;;;;;;89.73;4.80;;;7.40;99.90;;;;;;4986506;28;20440;-71
2023/02/25 14:18:01;;;;;;;78.83;3.93;;;7.60;99.90;;;;;;5002459;28;20428;-70
2023/02/25 14:20:30;;;;;;;76.30;3.60;;;7.70;99.90;;;;;;5005672;28;20898;-71
2023/02/25 14:23:26;;;;;;;76.43;4.00;;;7.80;99.90;;;;;;4996592;28;20835;-71
2023/02/25 14:26:47;;;;;;;77.57;3.70;;;7.80;99.90;;;;;;5004678;28;20431;-70
2023/02/25 14:29:37;;;;;;;77.87;3.70;;;7.70;99.90;;;;;;4974390;28;20455;-71
2023/02/25 14:32:27;;;;;;;79.13;4.10;;;7.60;99.90;;;;;;5004311;28;20987;-70
2023/02/25 14:35:24;;;;;;;79.00;3.97;;;7.50;99.90;;;;;;4991212;28;20473;-72
2023/02/25 14:38:15;;;;;;;83.97;4.05;;;7.40;99.90;;;;;;5000575;28;20503;-69
2023/02/25 14:41:18;;;;;;;82.67;3.93;;;7.40;99.90;;;;;;4997576;28;20650;-71
2023/02/25 14:43:47;;;;;;;79.30;4.27;;;7.50;99.90;;;;;;4992232;28;20514;-70
2023/02/25 14:46:40;;;;;;;79.50;5.40;;;7.50;99.90;;;;;;5004499;28;20477;-70